Flight Track Log - Related Links

Times and Time Zones

All times are in EDT time to prevent confusion due to time zone crossing. See the N9543F flight status page for this flight to view local times or setup timezone preferences in your user account.


Time Position Orientation Groundspeed Altitude Reporting Facility
EDT Latitude Longitude Course Direction KTS MPH feet Rate Location/Type
Fri 07:23:01 PM 39.6372 -79.8842 99° East 134 154 2,700  Level Washington Center
Fri 07:24:01 PM 39.6386 -79.8492 87° East 112 129 3,300 545 Climbing Washington Center
Fri 07:25:02 PM 39.6378 -79.8117 92° East 101 116 3,800 555 Climbing Washington Center
Fri 07:26:00 PM 39.6369 -79.7764 92° East 101 116 4,400 559 Climbing Washington Center
Fri 07:27:00 PM 39.6045 -79.6615 97° East  Level FlightAware Approximate
Fri 07:27:00 PM 39.6342 -79.7358 95° East 101 116 4,900  Level Washington Center
Fri 07:28:00 PM 39.5993 -79.6104 99° East  Level FlightAware Approximate
Fri 07:28:02 PM 39.6292 -79.6978 100° East 101 116 5,400  Level Washington Center
Fri 07:29:02 PM 39.6222 -79.6569 102° East 127 146 5,800 500 Climbing Washington Center
Fri 07:30:02 PM 39.6153 -79.6161 102° East 127 146 6,400 508 Climbing Washington Center
Fri 07:31:00 PM 39.6106 -79.5728 98° East 121 139 6,800 305 Climbing Washington Center
Fri 07:32:00 PM 39.6036 -79.5294 102° East 121 139 7,000 148 Climbing Washington Center
Fri 07:33:02 PM 39.5967 -79.4806 100° East 128 147 7,100  Climbing Washington Center
Fri 07:34:02 PM 39.5922 -79.4292 96° East 133 153 7,000 -51 Descending Washington Center
Fri 07:35:00 PM 39.5856 -79.3747 99° East 145 167 7,000 50 Level Washington Center
Fri 07:36:01 PM 39.5747 -79.3231 105° East 145 167 7,100 49 Climbing Washington Center
Fri 07:37:02 PM 39.5597 -79.2686 110° East 156 180 7,100  Level Washington Center
Fri 07:38:00 PM 39.5553 -79.2117 96° East 156 180 7,100  Level Washington Center
Fri 07:39:01 PM 39.5483 -79.1603 100° East 156 180 7,100 -49 Level Washington Center
Fri 07:40:02 PM 39.5417 -79.1061 99° East 156 180 7,000 -49 Descending Washington Center
Fri 07:41:03 PM 39.5286 -79.0517 107° East 156 180 7,000  Level Washington Center
Fri 07:42:01 PM 39.5217 -79.0003 100° East 156 180 7,000  Level Washington Center
Fri 07:43:02 PM 39.5211 -78.9436 91° East 146 168 7,000 50 Level Washington Center
Fri 07:44:02 PM 39.5144 -78.8922 100° East 146 168 7,100 51 Climbing Washington Center
Fri 07:45:00 PM 39.5053 -78.8381 102° East 146 168 7,100  Level Washington Center
Fri 07:46:01 PM 39.4942 -78.7864 106° East 146 168 7,100  Level Washington Center
Fri 07:47:02 PM 39.4875 -78.7297 99° East 146 168 7,100 -50 Level Washington Center
Fri 07:48:00 PM 39.4783 -78.6756 102° East 146 168 7,000  Descending Washington Center
Fri 07:49:01 PM 39.4692 -78.6239 103° East 146 168 7,100  Climbing Washington Center
Fri 07:50:01 PM 39.4664 -78.5728 94° East 146 168 7,000  Descending Washington Center
Fri 07:51:02 PM 39.4614 -78.5217 97° East 146 168 7,100  Climbing Washington Center
Fri 07:52:02 PM 39.4564 -78.4650 97° East 146 168 7,000  Descending Washington Center
Fri 07:53:00 PM 39.4494 -78.4136 100° East 146 168 7,100 -50 Climbing Washington Center
Fri 07:54:01 PM 39.4486 -78.3597 91° East 146 168 6,900  Descending Washington Center
Fri 07:55:01 PM 39.4436 -78.3058 97° East 146 168 7,100 50 Climbing Washington Center
Fri 07:56:02 PM 39.4383 -78.2544 98° East 146 168 7,000 -50 Descending Washington Center
Fri 07:57:00 PM 39.4394 -78.2008 88° East 146 168 7,000 50 Level Washington Center
Fri 07:58:01 PM 39.4408 -78.1472 88° East 141 162 7,100  Climbing Washington Center
Fri 08:00:14 PM 39.4500 -78.0167 85° East 151 174 7,000 -31 Descending Potomac TRACON
Fri 08:01:14 PM 39.4500 -77.9667 90° East 145 167 7,000 47 Level Potomac TRACON
Fri 08:02:21 PM 39.4500 -77.9167 90° East 147 169 7,100  Climbing Potomac TRACON
Fri 08:03:21 PM 39.4500 -77.8500 90° East 156 180 7,000  Descending Potomac TRACON
Fri 08:04:21 PM 39.4500 -77.8000 90° East 154 177 7,100  Climbing Potomac TRACON
Fri 08:05:21 PM 39.4500 -77.7500 90° East 151 174 7,000 -53 Descending Potomac TRACON
Fri 08:06:15 PM 39.4500 -77.7000 90° East 149 171 7,000 53 Level Potomac TRACON
Fri 08:07:15 PM 39.4500 -77.6500 90° East 150 173 7,100 -200 Climbing Potomac TRACON
Fri 08:08:15 PM 39.4500 -77.5833 90° East 160 184 6,600 -350 Descending Potomac TRACON
Fri 08:09:15 PM 39.4500 -77.5333 90° East 162 186 6,400 -526 Descending Potomac TRACON
Fri 08:10:09 PM 39.4500 -77.4833 90° East 170 196 5,600 -650 Descending Potomac TRACON
Fri 08:11:15 PM 39.4500 -77.4167 90° East 164 189 5,100 -238 Descending Potomac TRACON
Fri 08:12:15 PM 39.4500 -77.3500 90° East 155 178 5,100 -100 Level Potomac TRACON
Fri 08:13:15 PM 39.4667 -77.3000 67° East 151 174 4,900 -50 Descending Potomac TRACON
Fri 08:14:15 PM 39.4667 -77.2500 90° East 149 171 5,000 50 Climbing Potomac TRACON
Fri 08:15:15 PM 39.4667 -77.1833 90° East 152 175 5,000  Level Potomac TRACON
Fri 08:16:10 PM 39.4833 -77.1500 57° Northeast 151 174 5,000 -52 Level Potomac TRACON
Fri 08:17:10 PM 39.4833 -77.0833 90° East 156 180 4,900 -286 Descending Potomac TRACON
Fri 08:18:16 PM 39.4833 -77.0333 90° East 164 189 4,400 -381 Descending Potomac TRACON
Fri 08:19:16 PM 39.5000 -76.9667 72° East 162 186 4,100 -211 Descending Potomac TRACON
Fri 08:20:10 PM 39.5000 -76.9167 90° East 155 178 4,000 -53 Descending Potomac TRACON
Fri 08:21:10 PM 39.4833 -76.8667 113° Southeast 146 168 4,000  Level Potomac TRACON
Fri 08:22:11 PM 39.4667 -76.8167 113° Southeast 143 165 4,000  Level Potomac TRACON
Fri 08:23:17 PM 39.4500 -76.7667 113° Southeast 144 166 4,000  Level Potomac TRACON
Fri 08:24:11 PM 39.4333 -76.7333 123° Southeast 142 163 4,000 -105 Level Potomac TRACON
Fri 08:25:11 PM 39.4167 -76.6833 113° Southeast 147 169 3,800 -300 Descending Potomac TRACON
Fri 08:26:11 PM 39.4000 -76.6333 113° Southeast 154 177 3,400 -400 Descending Potomac TRACON
Fri 08:27:11 PM 39.3833 -76.5833 113° Southeast 145 167 3,000 -198 Descending Potomac TRACON
Fri 08:28:12 PM 39.3667 -76.5500 123° Southeast 133 153 3,000 -198 Level Potomac TRACON
Fri 08:29:12 PM 39.3333 -76.5000 131° Southeast 140 161 2,600 -571 Descending Potomac TRACON
Fri 08:30:18 PM 39.3333 -76.4500 90° East 137 158 1,800 -700 Descending Potomac TRACON
Fri 08:31:12 PM 39.3000 -76.4167 142° Southeast 121 139 1,200 -500 Descending Potomac TRACON
Fri 08:32:18 PM 39.2833 -76.4000 142° Southeast 92 106 800 -364 Descending Potomac TRACON
Fri 08:33:24 PM 39.3000 -76.3833 38° Northeast 93 107 400 -364 Descending Potomac TRACON

Login

Don't have an account? Register now (free) for customized features, flight alerts, and more!